.
WxDataArchive / Data Records for 2010-02-20
2010-02-19 February 2010 2010-02-21

Data Records for Saturday, 20 February 2010

Time	Temp	Chill	HIndex	Humid	Dewpt	 Wind 	HiWind	WindDir	Rain 	Barom 
-----	----	-----	------	-----	-----	------	------	-------	-----	----- 
00:00	25.6	25.6	25.6	76	19.1	0	0	---	0.00	30.213 
00:05	25.4	25.4	25.4	77	19.2	0	0	---	0.00	30.213 
00:10	25.3	25.3	25.3	77	19.1	0	0	---	0.00	30.213 
00:15	25.1	25.1	25.1	77	18.9	0	0	---	0.00	30.211 
00:20	25.0	25.0	25.0	77	18.8	0	0	---	0.00	30.211 
00:25	24.8	24.8	24.8	78	18.9	0	0	---	0.00	30.211 
00:30	24.7	24.7	24.7	78	18.8	0	0	---	0.00	30.209 
00:35	24.5	24.5	24.5	78	18.6	0	0	---	0.00	30.209 
00:40	24.4	24.4	24.4	79	18.8	0	0	---	0.00	30.209 
00:45	24.2	24.2	24.2	79	18.6	0	0	---	0.00	30.211 
00:50	23.9	23.9	23.9	79	18.4	0	0	---	0.00	30.211 
00:55	23.6	23.6	23.6	79	18.1	0	0	---	0.00	30.211 
01:00	23.5	23.5	23.5	80	18.3	0	0	---	0.00	30.210 
01:05	23.3	23.3	23.3	80	18.1	0	0	---	0.00	30.210 
01:10	23.3	23.3	23.3	81	18.3	0	0	---	0.00	30.210 
01:15	23.2	23.2	23.2	81	18.3	0	0	---	0.00	30.210 
01:20	23.0	23.0	23.0	81	18.1	0	0	---	0.00	30.210 
01:25	22.7	22.7	22.7	81	17.8	0	0	---	0.00	30.210 
01:30	22.5	22.5	22.5	81	17.6	0	0	---	0.00	30.213 
01:35	22.5	22.5	22.5	82	17.9	0	0	---	0.00	30.213 
01:40	22.5	22.5	22.5	82	17.9	0	0	---	0.00	30.213 
01:45	22.7	22.7	22.7	83	18.3	0	0	---	0.00	30.214 
01:50	22.7	22.7	22.7	83	18.3	0	0	---	0.00	30.214 
01:55	22.7	22.7	22.7	83	18.3	0	0	---	0.00	30.214 
02:00	22.5	22.5	22.5	83	18.1	0	0	---	0.00	30.213 
02:05	22.5	22.5	22.5	83	18.1	0	0	---	0.00	30.213 
02:10	22.5	22.5	22.5	84	18.4	0	0	---	0.00	30.213 
02:15	22.5	22.5	22.5	84	18.4	0	0	---	0.00	30.212 
02:20	22.7	22.7	22.7	84	18.6	0	0	---	0.00	30.212 
02:25	22.5	22.5	22.5	84	18.4	0	0	---	0.00	30.212 
02:30	22.5	22.5	22.5	84	18.4	0	0	---	0.00	30.213 
02:35	22.5	22.5	22.5	84	18.4	0	0	---	0.00	30.213 
02:40	22.5	22.5	22.5	84	18.4	0	0	---	0.00	30.213 
02:45	22.7	22.7	22.7	85	18.9	0	0	---	0.00	30.214 
02:50	22.9	22.9	22.9	85	19.1	0	0	---	0.00	30.214 
02:55	23.0	23.0	23.0	85	19.2	0	0	---	0.00	30.214 
03:00	23.0	23.0	23.0	85	19.2	0	0	---	0.00	30.214 
03:05	23.2	23.2	23.2	85	19.4	0	0	---	0.00	30.214 
03:10	23.2	23.2	23.2	85	19.4	0	0	---	0.00	30.214 
03:15	23.2	23.2	23.2	85	19.4	0	0	---	0.00	30.213 
03:20	23.3	23.3	23.3	85	19.5	0	0	---	0.00	30.213 
03:25	23.3	23.3	23.3	85	19.5	0	0	---	0.00	30.213 
03:30	23.5	23.5	23.5	86	19.9	0	0	---	0.00	30.213 
03:35	23.6	23.6	23.6	86	20.0	0	0	---	0.00	30.213 
03:40	23.6	23.6	23.6	86	20.0	0	0	---	0.00	30.213 
03:45	23.8	23.8	23.8	86	20.2	0	0	---	0.00	30.215 
03:50	23.8	23.8	23.8	86	20.2	0	0	---	0.00	30.215 
03:55	23.9	23.9	23.9	86	20.3	0	0	---	0.00	30.215 
04:00	24.1	24.1	24.1	86	20.5	0	0	---	0.00	30.215 
04:05	24.2	24.2	24.2	86	20.6	0	0	---	0.00	30.215 
04:10	24.4	24.4	24.4	86	20.8	0	0	---	0.00	30.215 
04:15	24.4	24.4	24.4	86	20.8	0	0	---	0.00	30.222 
04:20	24.5	24.5	24.5	86	20.9	0	0	---	0.00	30.222 
04:25	24.5	24.5	24.5	86	20.9	0	0	---	0.00	30.222 
04:30	24.4	24.4	24.4	86	20.8	0	0	---	0.00	30.225 
04:35	24.2	24.2	24.2	86	20.6	0	0	---	0.00	30.225 
04:40	24.2	24.2	24.2	86	20.6	0	0	---	0.00	30.225 
04:45	24.1	24.1	24.1	86	20.5	0	0	---	0.00	30.229 
04:50	24.1	24.1	24.1	86	20.5	0	0	---	0.00	30.229 
04:55	24.1	24.1	24.1	86	20.5	0	0	---	0.00	30.229 
05:00	24.2	24.2	24.2	86	20.6	0	0	---	0.00	30.230 
05:05	24.4	24.4	24.4	86	20.8	0	0	---	0.00	30.230 
05:10	24.5	24.5	24.5	86	20.9	0	0	---	0.00	30.230 
05:15	24.5	24.5	24.5	86	20.9	0	0	---	0.00	30.234 
05:20	24.5	24.5	24.5	86	20.9	0	0	---	0.00	30.234 
05:25	24.5	24.5	24.5	86	20.9	0	0	---	0.00	30.234 
05:30	24.5	24.5	24.5	86	20.9	0	0	---	0.00	30.235 
05:35	24.5	24.5	24.5	86	20.9	0	0	---	0.00	30.235 
05:40	24.7	24.7	24.7	86	21.1	0	0	---	0.00	30.235 
05:45	24.8	24.8	24.8	87	21.5	0	0	---	0.00	30.235 
05:50	25.0	25.0	25.0	86	21.4	0	0	---	0.00	30.235 
05:55	25.1	25.1	25.1	87	21.8	0	0	---	0.00	30.235 
06:00	25.3	25.3	25.3	87	22.0	0	0	---	0.00	30.233 
06:05	25.3	25.3	25.3	86	21.7	0	0	---	0.00	30.233 
06:10	25.4	25.4	25.4	86	21.8	0	0	---	0.00	30.233 
06:15	25.6	25.6	25.6	86	22.0	0	0	---	0.00	30.233 
06:20	25.7	25.7	25.7	86	22.1	0	0	---	0.00	30.233 
06:25	25.8	25.8	25.8	86	22.2	0	0	---	0.00	30.233 
06:30	26.0	26.0	26.0	85	22.1	0	0	---	0.00	30.234 
06:35	26.0	26.0	26.0	85	22.1	0	0	---	0.00	30.234 
06:40	26.0	26.0	26.0	85	22.1	0	0	---	0.00	30.234 
06:45	26.1	26.1	26.1	84	21.9	0	0	---	0.00	30.234 
06:50	26.1	26.1	26.1	84	21.9	0	0	---	0.00	30.234 
06:55	26.1	26.1	26.1	84	21.9	0	0	---	0.00	30.234 
07:00	26.0	26.0	26.0	84	21.8	0	0	---	0.00	30.234 
07:05	25.8	25.8	25.8	84	21.6	0	0	---	0.00	30.234 
07:10	25.8	25.8	25.8	84	21.6	0	0	---	0.00	30.234 
07:15	25.7	25.7	25.7	84	21.5	0	0	---	0.00	30.237 
07:20	25.4	25.4	25.4	84	21.3	0	0	---	0.00	30.237 
07:25	25.3	25.3	25.3	84	21.2	0	0	---	0.00	30.237 
07:30	25.1	25.1	25.1	84	21.0	0	0	---	0.00	30.238 
07:35	24.8	24.8	24.8	84	20.7	0	0	---	0.00	30.238 
07:40	24.7	24.7	24.7	84	20.6	0	0	---	0.00	30.238 
07:45	24.5	24.5	24.5	84	20.4	0	0	---	0.00	30.245 
07:50	24.4	24.4	24.4	84	20.3	0	0	---	0.00	30.245 
07:55	24.4	24.4	24.4	85	20.6	0	0	---	0.00	30.245 
08:00	24.2	24.2	24.2	85	20.4	0	0	---	0.00	30.249 
08:05	24.2	24.2	24.2	85	20.4	0	0	---	0.00	30.249 
08:10	24.4	24.4	24.4	85	20.6	0	0	---	0.00	30.249 
08:15	24.7	24.7	24.7	86	21.1	0	0	---	0.00	30.253 
08:20	25.0	25.0	25.0	86	21.4	0	0	---	0.00	30.253 
08:25	25.6	25.6	25.6	86	22.0	0	0	---	0.00	30.253 
08:30	26.0	26.0	26.0	86	22.4	0	0	---	0.00	30.253 
08:35	26.4	26.4	26.4	86	22.8	0	0	---	0.00	30.253 
08:40	26.9	26.9	26.9	85	23.0	0	0	---	0.00	30.253 
08:45	27.5	27.5	27.5	84	23.3	0	0	---	0.00	30.249 
08:50	27.9	27.9	27.9	83	23.4	0	0	---	0.00	30.249 
08:55	28.4	28.4	28.4	82	23.6	0	1	248	0.00	30.249 
09:00	28.8	28.8	28.8	81	23.7	0	0	---	0.00	30.251 
09:05	29.1	29.1	29.1	79	23.4	0	1	248	0.00	30.251 
09:10	29.4	29.4	29.4	78	23.4	0	1	248	0.00	30.251 
09:15	29.7	29.7	29.7	78	23.7	0	0	---	0.00	30.249 
09:20	30.0	30.0	30.0	77	23.7	0	1	248	0.00	30.249 
09:25	30.3	30.3	30.3	75	23.3	0	0	---	0.00	30.249 
09:30	30.4	30.4	30.4	74	23.1	0	0	---	0.00	30.251 
09:35	30.7	30.7	30.7	73	23.1	0	0	---	0.00	30.251 
09:40	31.2	31.2	31.2	72	23.2	0	3	248	0.00	30.251 
09:45	31.6	31.6	31.6	70	23.0	1	4	248	0.00	30.248 
09:50	32.1	32.1	32.1	70	23.4	0	2	248	0.00	30.248 
09:55	32.7	32.7	32.7	69	23.7	1	3	248	0.00	30.248 
10:00	33.1	33.1	33.1	67	23.4	1	2	248	0.00	30.246 
10:05	33.4	33.4	33.4	66	23.3	0	2	248	0.00	30.246 
10:10	33.2	33.2	33.2	66	23.1	1	3	248	0.00	30.246 
10:15	33.1	33.1	33.1	68	23.7	1	4	270	0.00	30.248 
10:20	33.1	33.1	33.1	69	24.1	1	3	248	0.00	30.248 
10:25	32.9	32.9	32.9	69	23.9	0	2	248	0.00	30.248 
10:30	33.1	33.1	33.1	70	24.4	1	2	248	0.00	30.248 
10:35	33.1	33.1	33.1	71	24.7	1	3	248	0.00	30.248 
10:40	33.1	33.1	33.1	72	25.1	1	2	248	0.00	30.248 
10:45	33.1	33.1	33.1	73	25.4	1	4	248	0.00	30.247 
10:50	33.1	33.1	33.1	74	25.7	0	2	248	0.00	30.247 
10:55	33.2	33.2	33.2	75	26.2	1	2	248	0.00	30.247 
11:00	33.5	33.5	33.5	76	26.8	1	3	248	0.00	30.246 
11:05	33.7	33.7	33.7	77	27.3	0	3	202	0.00	30.246 
11:10	33.7	33.7	33.7	77	27.3	0	2	225	0.00	30.246 
11:15	33.5	33.5	33.5	78	27.4	0	2	225	0.00	30.247 
11:20	33.4	33.4	33.4	78	27.3	0	2	225	0.00	30.247 
11:25	33.4	33.4	33.4	79	27.6	0	2	225	0.00	30.247 
11:30	33.7	33.7	33.7	79	27.9	0	2	225	0.00	30.246 
11:35	33.8	33.8	33.8	78	27.7	0	3	225	0.00	30.246 
11:40	33.8	33.8	33.8	78	27.7	0	1	225	0.00	30.246 
11:45	33.8	33.8	33.8	78	27.7	0	2	225	0.00	30.243 
11:50	34.0	34.0	34.0	79	28.2	0	1	225	0.00	30.243 
11:55	34.0	34.0	34.0	79	28.2	0	1	225	0.00	30.243 
12:00	34.0	34.0	34.0	80	28.5	0	2	112	0.00	30.238 
12:05	33.8	33.8	33.8	80	28.3	0	2	112	0.00	30.238 
12:10	34.0	34.0	34.0	80	28.5	0	1	112	0.00	30.238 
12:15	34.0	34.0	34.0	80	28.5	0	1	112	0.00	30.232 
12:20	34.1	34.1	34.1	79	28.3	0	1	112	0.00	30.232 
12:25	34.6	34.6	34.6	80	29.1	0	1	112	0.00	30.232 
12:30	35.0	35.0	35.0	78	28.8	0	1	112	0.00	30.228 
12:35	35.0	35.0	35.0	77	28.5	0	2	112	0.00	30.228 
12:40	34.9	34.9	34.9	77	28.4	1	3	112	0.00	30.228 
12:45	34.4	34.4	34.4	77	27.9	1	3	112	0.00	30.225 
12:50	34.4	34.4	34.4	77	27.9	1	3	112	0.00	30.225 
12:55	34.3	34.3	34.3	78	28.2	1	4	112	0.00	30.225 
13:00	34.3	34.3	34.3	78	28.2	1	3	112	0.00	30.219 
13:05	34.4	34.4	34.4	78	28.3	0	1	112	0.00	30.219 
13:10	34.6	34.6	34.6	78	28.5	1	3	112	0.00	30.219 
13:15	34.4	34.4	34.4	78	28.3	1	3	112	0.00	30.214 
13:20	34.3	34.3	34.3	78	28.2	1	3	112	0.00	30.214 
13:25	34.4	34.4	34.4	78	28.3	1	4	112	0.00	30.214 
13:30	34.6	34.6	34.6	77	28.1	1	3	112	0.00	30.205 
13:35	34.7	34.7	34.7	76	27.9	1	3	112	0.00	30.205 
13:40	34.9	34.9	34.9	76	28.1	1	3	112	0.00	30.205 
13:45	35.2	35.2	35.2	75	28.1	1	3	112	0.00	30.201 
13:50	35.5	35.5	35.5	75	28.4	1	3	112	0.00	30.201 
13:55	35.8	35.8	35.8	75	28.7	1	3	135	0.00	30.201 
14:00	35.8	35.8	35.8	75	28.7	1	3	135	0.00	30.197 
14:05	35.5	35.5	35.5	75	28.4	1	3	112	0.00	30.197 
14:10	34.9	34.9	34.9	76	28.1	2	3	112	0.00	30.197 
14:15	34.7	34.7	34.7	77	28.2	1	2	112	0.00	30.191 
14:20	34.7	34.7	34.7	77	28.2	1	3	112	0.00	30.191 
14:25	34.9	34.9	34.9	77	28.4	1	4	112	0.00	30.191 
14:30	35.2	35.2	35.2	77	28.7	0	2	112	0.00	30.184 
14:35	35.2	35.2	35.2	76	28.4	1	4	90	0.00	30.184 
14:40	35.2	35.2	35.2	77	28.7	1	2	135	0.00	30.184 
14:45	35.2	35.2	35.2	77	28.7	1	4	90	0.00	30.180 
14:50	35.2	35.2	35.2	77	28.7	1	3	112	0.00	30.180 
14:55	35.2	35.2	35.2	77	28.7	1	3	135	0.00	30.180 
15:00	35.0	35.0	35.0	77	28.5	1	4	135	0.00	30.172 
15:05	35.0	35.0	35.0	77	28.5	1	3	135	0.00	30.172 
15:10	35.0	35.0	35.0	77	28.5	1	4	112	0.00	30.172 
15:15	34.9	34.9	34.9	77	28.4	2	5	90	0.00	30.170 
15:20	34.9	34.9	34.9	77	28.4	1	3	90	0.00	30.170 
15:25	35.2	35.2	35.2	77	28.7	1	3	90	0.00	30.170 
15:30	35.3	35.3	35.3	77	28.8	1	2	90	0.00	30.176 
15:35	35.5	35.5	35.5	77	29.0	1	5	90	0.00	30.176 
15:40	35.5	35.5	35.5	76	28.7	1	4	112	0.00	30.176 
15:45	35.5	35.5	35.5	77	29.0	2	4	112	0.00	30.168 
15:50	35.6	35.6	35.6	77	29.1	1	3	112	0.00	30.168 
15:55	35.6	35.6	35.6	76	28.8	1	4	90	0.00	30.168 
16:00	35.5	35.5	35.5	77	29.0	1	3	90	0.00	30.168 
16:05	35.5	35.5	35.5	77	29.0	1	2	112	0.00	30.168 
16:10	35.2	35.2	35.2	78	29.0	2	4	90	0.00	30.168 
16:15	35.2	35.2	35.2	78	29.0	1	5	90	0.00	30.170 
16:20	35.3	35.3	35.3	78	29.1	1	4	90	0.00	30.170 
16:25	35.3	35.3	35.3	78	29.1	1	4	112	0.00	30.170 
16:30	35.5	35.5	35.5	78	29.3	1	3	112	0.00	30.171 
16:35	35.5	35.5	35.5	78	29.3	1	4	112	0.00	30.171 
16:40	35.5	35.5	35.5	78	29.3	1	3	135	0.00	30.171 
16:45	35.5	35.5	35.5	78	29.3	1	4	135	0.00	30.171 
16:50	35.3	35.3	35.3	78	29.1	1	3	135	0.00	30.171 
16:55	35.2	35.2	35.2	78	29.0	1	3	112	0.00	30.171 
17:00	35.0	35.0	35.0	79	29.2	1	4	112	0.00	30.177 
17:05	34.7	34.7	34.7	80	29.2	1	3	112	0.00	30.177 
17:10	34.6	34.6	34.6	80	29.1	2	4	112	0.00	30.177 
17:15	34.6	34.6	34.6	80	29.1	1	2	112	0.00	30.170 
17:20	34.6	34.6	34.6	80	29.1	2	4	112	0.00	30.170 
17:25	34.4	34.4	34.4	81	29.2	1	3	112	0.00	30.170 
17:30	34.4	34.4	34.4	81	29.2	1	3	112	0.00	30.181 
17:35	34.3	34.3	34.3	81	29.1	1	3	112	0.00	30.181 
17:40	34.3	34.3	34.3	81	29.1	1	3	112	0.00	30.181 
17:45	34.1	34.1	34.1	81	28.9	1	3	112	0.00	30.172 
17:50	34.0	34.0	34.0	81	28.8	1	3	112	0.00	30.172 
17:55	34.0	34.0	34.0	81	28.8	1	3	112	0.00	30.172 
18:00	33.8	33.8	33.8	81	28.6	0	1	112	0.00	30.176 
18:05	33.8	33.8	33.8	81	28.6	0	2	112	0.00	30.176 
18:10	33.8	33.8	33.8	81	28.6	0	2	112	0.00	30.176 
18:15	33.8	33.8	33.8	81	28.6	0	2	112	0.00	30.170 
18:20	33.7	33.7	33.7	81	28.5	0	2	112	0.00	30.170 
18:25	33.5	33.5	33.5	81	28.3	0	1	112	0.00	30.170 
18:30	33.5	33.5	33.5	82	28.6	0	1	112	0.00	30.169 
18:35	33.4	33.4	33.4	82	28.5	0	0	---	0.00	30.169 
18:40	33.2	33.2	33.2	82	28.3	0	2	112	0.00	30.169 
18:45	33.1	33.1	33.1	83	28.5	0	1	112	0.00	30.171 
18:50	33.1	33.1	33.1	83	28.5	0	1	112	0.00	30.171 
18:55	32.9	32.9	32.9	84	28.6	0	1	112	0.00	30.171 
19:00	32.9	32.9	32.9	84	28.6	0	1	112	0.00	30.169 
19:05	32.9	32.9	32.9	84	28.6	0	0	---	0.00	30.169 
19:10	32.9	32.9	32.9	84	28.6	0	1	112	0.00	30.169 
19:15	32.9	32.9	32.9	84	28.6	0	1	112	0.00	30.171 
19:20	32.9	32.9	32.9	84	28.6	0	1	112	0.00	30.171 
19:25	32.9	32.9	32.9	84	28.6	0	1	112	0.00	30.171 
19:30	33.1	33.1	33.1	84	28.8	0	0	---	0.00	30.170 
19:35	33.1	33.1	33.1	84	28.8	0	0	---	0.00	30.170 
19:40	33.1	33.1	33.1	84	28.8	0	1	112	0.00	30.170 
19:45	32.9	32.9	32.9	84	28.6	0	1	112	0.00	30.169 
19:50	32.9	32.9	32.9	84	28.6	0	1	112	0.00	30.169 
19:55	32.8	32.8	32.8	84	28.5	0	1	112	0.00	30.169 
20:00	32.8	32.8	32.8	85	28.8	0	0	---	0.00	30.165 
20:05	32.8	32.8	32.8	85	28.8	0	1	112	0.00	30.165 
20:10	32.8	32.8	32.8	85	28.8	0	1	112	0.00	30.165 
20:15	32.8	32.8	32.8	84	28.5	0	0	---	0.00	30.157 
20:20	32.8	32.8	32.8	84	28.5	0	1	112	0.00	30.157 
20:25	32.8	32.8	32.8	84	28.5	0	0	---	0.00	30.157 
20:30	32.8	32.8	32.8	84	28.5	0	1	112	0.00	30.152 
20:35	32.8	32.8	32.8	84	28.5	0	1	112	0.00	30.152 
20:40	32.8	32.8	32.8	84	28.5	0	1	112	0.00	30.152 
20:45	32.8	32.8	32.8	84	28.5	0	2	112	0.00	30.152 
20:50	32.8	32.8	32.8	84	28.5	0	2	112	0.00	30.152 
20:55	32.8	32.8	32.8	84	28.5	0	1	112	0.00	30.152 
21:00	32.8	32.8	32.8	84	28.5	0	1	112	0.00	30.153 
21:05	32.8	32.8	32.8	84	28.5	0	1	112	0.00	30.153 
21:10	32.8	32.8	32.8	84	28.5	0	1	112	0.00	30.153 
21:15	32.8	32.8	32.8	84	28.5	0	1	112	0.00	30.150 
21:20	32.8	32.8	32.8	84	28.5	0	1	112	0.00	30.150 
21:25	32.8	32.8	32.8	84	28.5	0	1	112	0.00	30.150 
21:30	32.8	32.8	32.8	84	28.5	0	1	112	0.00	30.151 
21:35	32.8	32.8	32.8	84	28.5	0	1	112	0.00	30.151 
21:40	32.7	32.7	32.7	85	28.7	0	0	---	0.00	30.151 
21:45	32.7	32.7	32.7	85	28.7	0	0	---	0.00	30.149 
21:50	32.7	32.7	32.7	85	28.7	0	1	112	0.00	30.149 
21:55	32.7	32.7	32.7	85	28.7	0	0	---	0.00	30.149 
22:00	32.7	32.7	32.7	85	28.7	0	0	---	0.00	30.149 
22:05	32.7	32.7	32.7	85	28.7	0	0	---	0.00	30.149 
22:10	32.8	32.8	32.8	85	28.8	0	1	112	0.00	30.149 
22:15	32.8	32.8	32.8	85	28.8	0	0	---	0.00	30.149 
22:20	32.8	32.8	32.8	85	28.8	0	0	---	0.00	30.149 
22:25	32.8	32.8	32.8	85	28.8	0	0	---	0.00	30.149 
22:30	32.8	32.8	32.8	85	28.8	0	0	---	0.00	30.152 
22:35	32.8	32.8	32.8	85	28.8	0	0	---	0.00	30.152 
22:40	32.8	32.8	32.8	85	28.8	0	0	---	0.00	30.152 
22:45	32.8	32.8	32.8	85	28.8	0	0	---	0.00	30.146 
22:50	32.8	32.8	32.8	85	28.8	0	1	112	0.00	30.146 
22:55	32.8	32.8	32.8	85	28.8	0	0	---	0.00	30.146 
23:00	32.8	32.8	32.8	84	28.5	0	1	112	0.00	30.135 
23:05	32.8	32.8	32.8	85	28.8	0	0	---	0.00	30.135 
23:10	32.7	32.7	32.7	85	28.7	0	0	---	0.00	30.135 
23:15	32.7	32.7	32.7	84	28.4	0	0	---	0.00	30.133 
23:20	32.7	32.7	32.7	84	28.4	0	0	---	0.00	30.133 
23:25	32.7	32.7	32.7	85	28.7	0	0	---	0.00	30.133 
23:30	32.7	32.7	32.7	85	28.7	0	0	---	0.00	30.130 
23:35	32.7	32.7	32.7	85	28.7	0	0	---	0.00	30.130 
23:40	32.7	32.7	32.7	85	28.7	0	0	---	0.00	30.130 
23:45	32.7	32.7	32.7	85	28.7	0	0	---	0.00	30.130 
23:50	32.7	32.7	32.7	85	28.7	0	1	112	0.00	30.130 
23:55	32.7	32.7	32.7	85	28.7	0	0	---	0.00	30.130 

CoCoRaHS
IN-AL-39
A2 Web Hosting
Creative Commons License
GoDaddy
search engine by freefind advanced

loaded 2018-11-14 04:04:03 • last modified 2010-11-18 10:43:29
Privacy PolicyDisclaimer
• wx.awcolley.com is powered by PmWiki v.2002016 •
• all content (unless otherwise noted) © 2018 A W Colley